Time;durP1;ratioP1;P1;durP2;ratioP2;P2;SDS_P1;SDS_P2;PMS_P1;PMS_P2;Temp;Humidity;BMP_temperature;BMP_pressure;BME280_temperature;BME280_humidity;BME280_pressure;Samples;Min_cycle;Max_cycle;Signal;HPM_P1;HPM_P2
2022/11/06 00:01:14;;;;;;;43.48;25.50;;;;;;;5.92;100.00;100487.56;1732003;81;21133;-72
2022/11/06 00:03:41;;;;;;;44.58;26.57;;;;;;;5.90;100.00;100489.16;1718881;82;20976;-73
2022/11/06 00:08:58;;;;;;;42.17;26.10;;;;;;;5.88;100.00;100491.23;1730461;82;20107;-72
2022/11/06 00:11:25;;;;;;;43.25;26.65;;;;;;;5.87;100.00;100486.07;1732789;81;21917;-72
2022/11/06 00:13:51;;;;;;;46.37;26.50;;;;;;;5.87;100.00;100480.14;1717406;83;20976;-72
2022/11/06 00:16:19;;;;;;;45.45;27.58;;;;;;;5.81;100.00;100478.83;1720247;82;21109;-72
2022/11/06 00:18:45;;;;;;;43.38;26.37;;;;;;;5.78;100.00;100478.73;1724428;82;20983;-73
2022/11/06 00:21:14;;;;;;;;;;;;;;;5.82;100.00;100476.41;1728035;82;21043;-73
2022/11/06 00:23:41;;;;;;;42.85;26.57;;;;;;;5.83;100.00;100481.60;1719963;83;20156;-73
2022/11/06 00:26:10;;;;;;;44.58;27.67;;;;;;;5.72;100.00;100474.23;1728954;82;21095;-72
2022/11/06 00:28:37;;;;;;;46.75;26.15;;;;;;;5.76;100.00;100474.61;1720822;82;21458;-72
2022/11/06 00:31:07;;;;;;;42.38;26.87;;;;;;;5.83;100.00;100474.84;1712115;82;21041;-73
2022/11/06 00:33:33;;;;;;;44.50;27.65;;;;;;;5.88;100.00;100471.52;1724081;82;20971;-72
2022/11/06 00:36:10;;;;;;;53.02;30.00;;;;;;;5.85;100.00;100466.50;1724471;82;21055;-72
2022/11/06 00:38:36;;;;;;;42.17;25.12;;;;;;;5.84;100.00;100471.63;1725234;82;20991;-72
2022/11/06 00:41:09;;;;;;;46.75;27.58;;;;;;;5.86;100.00;100471.73;1715931;80;21070;-73
2022/11/06 00:43:37;;;;;;;43.92;27.30;;;;;;;5.84;100.00;100466.22;1719574;82;21458;-72
2022/11/06 00:46:06;;;;;;;47.13;28.50;;;;;;;5.82;100.00;100469.66;1730544;80;21070;-72
2022/11/06 00:48:33;;;;;;;47.80;27.95;;;;;;;5.85;100.00;100474.61;1728334;82;21585;-72
2022/11/06 00:51:07;;;;;;;48.33;29.15;;;;;;;5.89;100.00;100475.33;1720466;81;21023;-72
2022/11/06 00:53:34;;;;;;;48.78;30.27;;;;;;;5.89;100.00;100471.80;1718055;83;21003;-72
2022/11/06 00:56:15;;;;;;;48.92;30.05;;;;;;;5.84;100.00;100467.58;1721121;82;21122;-73
2022/11/06 00:58:41;;;;;;;47.98;28.95;;;;;;;5.81;100.00;100466.12;1718287;82;21038;-72
2022/11/06 01:01:14;;;;;;;50.78;30.55;;;;;;;5.83;100.00;100462.69;1717755;82;21050;-72
2022/11/06 01:03:42;;;;;;;50.45;31.20;;;;;;;5.85;100.00;100465.98;1717585;82;21030;-72
2022/11/06 01:06:13;;;;;;;47.80;30.00;;;;;;;5.82;100.00;100462.91;1722313;82;21118;-72
2022/11/06 01:08:39;;;;;;;47.78;30.23;;;;;;;5.79;100.00;100459.30;1717598;82;21577;-73
2022/11/06 01:11:19;;;;;;;49.38;30.17;;;;;;;5.83;100.00;100464.05;1722251;82;21085;-73
2022/11/06 01:13:45;;;;;;;49.60;30.65;;;;;;;5.89;100.00;100458.28;1746462;81;21006;-72
2022/11/06 01:16:14;;;;;;;54.98;31.52;;;;;;;5.84;100.00;100464.88;1748887;81;21193;-72
2022/11/06 01:18:42;;;;;;;51.68;31.10;;;;;;;5.76;100.00;100463.28;1751841;81;20984;-72
2022/11/06 01:21:15;;;;;;;52.73;29.57;;;;;;;5.76;100.00;100467.33;1753467;80;21144;-73
2022/11/06 01:23:42;;;;;;;50.92;31.17;;;;;;;5.83;100.00;100461.34;1747498;81;20983;-72
2022/11/06 01:26:10;;;;;;;52.73;32.28;;;;;;;5.89;100.00;100460.98;1744680;81;21615;-73
2022/11/06 01:28:38;;;;;;;51.02;30.10;;;;;;;5.89;100.00;100460.47;1749195;81;20982;-73
2022/11/06 01:31:08;;;;;;;52.23;30.90;;;;;;;5.93;100.00;100464.91;1748295;81;21025;-72
2022/11/06 01:33:35;;;;;;;51.23;31.62;;;;;;;5.96;100.00;100467.98;1751574;81;20984;-72
2022/11/06 01:36:01;;;;;;;48.42;30.35;;;;;;;5.96;100.00;100464.45;1752126;80;21065;-72
2022/11/06 01:38:28;;;;;;;;;;;;;;;5.90;100.00;100459.42;1750551;81;20956;-73
2022/11/06 01:40:54;;;;;;;52.33;31.42;;;;;;;5.83;100.00;100461.34;1747288;81;20131;-72
2022/11/06 01:43:25;;;;;;;50.78;29.98;;;;;;;5.81;100.00;100456.66;1752074;82;20987;-72
2022/11/06 01:45:53;;;;;;;48.02;30.97;;;;;;;5.86;100.00;100454.69;1751888;81;21047;-72
2022/11/06 01:48:23;;;;;;;49.77;32.15;;;;;;;5.83;100.00;100457.28;1749662;82;21027;-74
2022/11/06 01:50:53;;;;;;;50.15;31.50;;;;;;;5.81;100.00;100453.16;1750008;80;21016;-72
2022/11/06 01:53:20;;;;;;;45.75;29.95;;;;;;;5.85;100.00;100448.94;1723603;82;20987;-71
2022/11/06 01:55:48;;;;;;;48.60;29.63;;;;;;;5.88;100.00;100452.05;1750967;81;21040;-72
2022/11/06 01:58:17;;;;;;;54.25;33.78;;;;;;;5.86;100.00;100451.47;1751086;81;20979;-71
2022/11/06 02:00:43;;;;;;;50.33;30.77;;;;;;;5.79;100.00;100449.32;1746434;81;21043;-71
2022/11/06 02:03:11;;;;;;;51.18;30.43;;;;;;;5.79;100.00;100449.32;1744721;81;21701;-73
2022/11/06 02:05:40;;;;;;;47.25;30.12;;;;;;;5.85;100.00;100455.17;1751835;81;21019;-71
2022/11/06 02:08:09;;;;;;;48.45;30.15;;;;;;;5.85;100.00;100451.13;1749452;81;21014;-71
2022/11/06 02:10:36;;;;;;;46.42;30.85;;;;;;;5.80;100.00;100454.20;1752008;81;21106;-71
2022/11/06 02:13:34;;;;;;;51.02;30.02;;;;;;;5.82;100.00;100454.80;1747784;81;21014;-71
2022/11/06 02:16:38;;;;;;;48.30;29.82;;;;;;;5.87;100.00;100455.83;1676940;82;21048;-71
2022/11/06 02:19:35;;;;;;;54.70;32.78;;;;;;;5.87;100.00;100461.23;1746341;82;21055;-71
2022/11/06 02:22:16;;;;;;;47.55;29.87;;;;;;;5.75;100.00;100462.97;1751943;81;21513;-71
2022/11/06 02:24:54;;;;;;;50.67;30.95;;;;;;;5.75;100.00;100454.03;1751627;81;21054;-71
2022/11/06 02:27:24;;;;;;;49.08;31.42;;;;;;;5.81;100.00;100454.52;1750530;81;21005;-72
2022/11/06 02:30:11;;;;;;;51.92;31.50;;;;;;;5.82;100.00;100450.74;1749734;80;21623;-72
2022/11/06 02:32:46;;;;;;;55.25;30.88;;;;;;;5.77;100.00;100453.30;1740785;81;21019;-72
2022/11/06 02:35:30;;;;;;;46.50;29.57;;;;;;;5.78;100.00;100447.66;1753343;80;21067;-72
2022/11/06 02:38:04;;;;;;;45.67;29.52;;;;;;;5.85;100.00;100451.13;1750628;81;21003;-72
2022/11/06 02:40:33;;;;;;;51.50;31.87;;;;;;;5.85;100.00;100453.82;1749117;81;21006;-72
2022/11/06 02:43:04;;;;;;;47.25;30.40;;;;;;;5.78;100.00;100445.48;1751588;81;21386;-72
2022/11/06 02:45:37;;;;;;;47.05;30.75;;;;;;;5.76;100.00;100440.31;1751279;81;21589;-72
2022/11/06 02:48:05;;;;;;;44.53;29.23;;;;;;;5.80;100.00;100442.05;1751225;81;21890;-72
2022/11/06 02:50:36;;;;;;;46.77;29.75;;;;;;;5.84;100.00;100440.03;1752498;81;21062;-71
2022/11/06 02:53:07;;;;;;;50.60;31.70;;;;;;;5.84;100.00;100435.15;1748466;81;21015;-72
2022/11/06 02:55:41;;;;;;;47.17;29.92;;;;;;;5.81;100.00;100440.45;1746277;81;21011;-72
2022/11/06 03:01:11;;;;;;;49.20;30.72;;;;;;;5.87;100.00;100437.43;1751043;80;21052;-72
2022/11/06 03:03:40;;;;;;;45.30;30.15;;;;;;;5.87;100.00;100444.19;1745624;80;21205;-72
2022/11/06 03:06:36;;;;;;;45.75;29.98;;;;;;;5.83;100.00;100450.53;1744599;80;21054;-73
2022/11/06 03:09:08;;;;;;;46.70;29.65;;;;;;;5.84;100.00;100445.95;1741320;81;21740;-72
2022/11/06 03:11:37;;;;;;;45.23;29.30;;;;;;;5.88;100.00;100443.15;1732767;82;20958;-72
2022/11/06 03:14:29;;;;;;;46.42;29.55;;;;;;;5.89;100.00;100448.31;1706468;82;21103;-72
2022/11/06 03:17:18;;;;;;;44.58;28.27;;;;;;;5.84;100.00;100448.14;1732096;82;21000;-72
2022/11/06 03:19:54;;;;;;;44.77;28.83;;;;;;;5.83;100.00;100453.75;1722134;82;21071;-72
2022/11/06 03:22:32;;;;;;;42.43;28.07;;;;;;;5.87;100.00;100449.07;1740892;81;20977;-72
2022/11/06 03:25:10;;;;;;;43.65;28.90;;;;;;;5.88;100.00;100452.61;1725748;82;21086;-72
2022/11/06 03:27:43;;;;;;;46.30;28.62;;;;;;;5.83;100.00;100444.30;1736120;81;21055;-72
2022/11/06 03:30:11;;;;;;;40.43;26.37;;;;;;;5.85;100.00;100448.42;1734968;81;21077;-71
2022/11/06 03:32:50;;;;;;;39.58;26.62;;;;;;;5.94;100.00;100451.70;1719706;81;21054;-72
2022/11/06 03:35:25;;;;;;;43.92;27.82;;;;;;;5.94;100.00;100453.05;1726513;82;21108;-72
2022/11/06 03:38:15;;;;;;;44.42;27.62;;;;;;;5.88;100.00;100453.95;1720393;82;21011;-71
2022/11/06 03:40:46;;;;;;;40.33;25.27;;;;;;;5.88;100.00;100457.45;1720236;82;21045;-70
2022/11/06 03:43:14;;;;;;;39.58;25.60;;;;;;;5.94;100.00;100454.41;1698104;82;21050;-70
2022/11/06 03:45:41;;;;;;;40.17;26.90;;;;;;;5.96;100.00;100449.59;1690605;82;21058;-71
2022/11/06 03:48:22;;;;;;;40.92;26.55;;;;;;;5.91;100.00;100446.75;1688683;84;21130;-72
2022/11/06 03:51:05;;;;;;;36.48;24.50;;;;;;;5.95;100.00;100452.01;1703078;82;20999;-72
2022/11/06 03:53:46;;;;;;;38.58;26.12;;;;;;;6.03;100.00;100446.28;1655899;85;21157;-72
2022/11/06 03:56:47;;;;;;;38.78;27.05;;;;;;;5.99;100.00;100440.50;1676353;84;21025;-72
2022/11/06 03:59:17;;;;;;;38.70;25.40;;;;;;;5.94;100.00;100438.19;1704808;84;21130;-72
2022/11/06 04:01:44;;;;;;;39.33;25.23;;;;;;;5.95;100.00;100434.44;1676094;84;21082;-73
2022/11/06 04:04:26;;;;;;;37.95;25.75;;;;;;;6.00;100.00;100438.11;1723152;82;21050;-72
2022/11/06 04:07:04;;;;;;;42.45;26.48;;;;;;;5.98;100.00;100432.64;1709306;82;21505;-73
2022/11/06 04:15:09;;;;;;;41.13;25.97;;;;;;;5.95;100.00;100442.55;1729178;82;21086;-72
2022/11/06 04:17:37;;;;;;;40.17;25.62;;;;;;;5.90;100.00;100436.45;1697364;82;21696;-73
2022/11/06 04:20:08;;;;;;;38.73;24.50;;;;;;;5.82;100.00;100431.30;1705257;82;21488;-72
2022/11/06 04:22:57;;;;;;;39.20;25.57;;;;;;;5.81;100.00;100428.84;1725896;82;21021;-72
2022/11/06 04:29:00;;;;;;;41.73;25.25;;;;;;;5.90;100.00;100432.92;1721144;82;21119;-72
2022/11/06 04:31:38;;;;;;;39.40;24.75;;;;;;;5.81;100.00;100426.14;1730351;82;21061;-72
2022/11/06 04:34:41;;;;;;;40.67;24.32;;;;;;;5.81;100.00;100429.64;1724185;81;21069;-73
2022/11/06 04:37:28;;;;;;;41.30;25.15;;;;;;;5.87;100.00;100426.63;1654922;86;21057;-71
2022/11/06 04:40:05;;;;;;;42.70;26.50;;;;;;;5.83;100.00;100432.14;1638820;86;21642;-70
2022/11/06 04:42:41;;;;;;;42.78;26.37;;;;;;;5.77;100.00;100426.28;1635788;85;21077;-70
2022/11/06 04:45:12;;;;;;;41.45;24.65;;;;;;;5.77;100.00;100430.34;1679669;84;21130;-73
2022/11/06 04:47:39;;;;;;;42.03;25.57;;;;;;;5.82;100.00;100432.66;1734757;82;21527;-73
2022/11/06 04:50:06;;;;;;;43.65;26.17;;;;;;;5.80;100.00;100434.77;1739848;81;21152;-73
2022/11/06 04:52:33;;;;;;;43.52;26.25;;;;;;;5.72;100.00;100440.45;1719345;82;21471;-71
2022/11/06 04:54:59;;;;;;;;;;;;;;;5.73;100.00;100441.29;1731303;82;21053;-70
2022/11/06 04:57:25;;;;;;;41.25;24.32;;;;;;;5.82;100.00;100447.52;1727050;82;20294;-71
2022/11/06 04:59:52;;;;;;;;;;;;;;;5.82;100.00;100450.74;1741029;81;21088;-70
2022/11/06 05:02:19;;;;;;;46.00;26.87;;;;;;;5.81;100.00;100447.20;1731368;82;20140;-71
2022/11/06 05:04:45;;;;;;;;;;;;;;;5.69;100.00;100456.28;1746839;81;21693;-70
2022/11/06 05:07:13;;;;;;;44.75;25.68;;;;;;;5.70;100.00;100457.95;1739091;82;20554;-71
2022/11/06 05:09:40;;;;;;;40.43;24.87;;;;;;;5.71;100.00;100455.00;1712970;82;21098;-72
2022/11/06 05:12:09;;;;;;;39.98;24.52;;;;;;;5.78;100.00;100452.23;1691420;84;21074;-71
2022/11/06 05:14:37;;;;;;;44.63;26.07;;;;;;;5.75;100.00;100452.68;1699745;83;21663;-71
2022/11/06 05:17:03;;;;;;;39.95;24.77;;;;;;;5.72;100.00;100454.48;1691989;84;21476;-72
2022/11/06 05:19:30;;;;;;;39.65;24.67;;;;;;;5.78;100.00;100464.39;1684478;83;21559;-72
2022/11/06 05:24:43;;;;;;;40.63;24.25;;;;;;;5.85;100.00;100461.93;1745782;81;21455;-72
2022/11/06 05:27:09;;;;;;;41.70;24.18;;;;;;;5.78;100.00;100469.80;1722445;81;21051;-72
2022/11/06 05:29:36;;;;;;;42.62;24.52;;;;;;;5.79;100.00;100470.11;1728145;82;21076;-72
2022/11/06 05:32:03;;;;;;;38.70;24.15;;;;;;;5.87;100.00;100476.09;1734207;82;21565;-71
2022/11/06 05:34:31;;;;;;;40.33;24.47;;;;;;;5.91;100.00;100479.17;1734367;82;21119;-72
2022/11/06 05:36:58;;;;;;;41.65;23.75;;;;;;;5.89;100.00;100480.73;1741191;81;21016;-72
2022/11/06 05:39:26;;;;;;;42.25;22.90;;;;;;;5.89;100.00;100482.61;1721239;81;21280;-72
2022/11/06 05:41:53;;;;;;;35.88;22.02;;;;;;;5.98;100.00;100486.69;1742577;81;21041;-72
2022/11/06 05:44:20;;;;;;;;;;;;;;;6.03;100.00;100488.70;1750158;80;21126;-72
2022/11/06 05:46:47;;;;;;;40.67;24.30;;;;;;;5.99;100.00;100482.91;1743189;82;20142;-72
2022/11/06 05:49:13;;;;;;;39.95;22.98;;;;;;;5.89;100.00;100488.01;1741853;82;21805;-72
2022/11/06 05:51:41;;;;;;;38.85;22.25;;;;;;;5.88;100.00;100487.18;1738614;80;21607;-72
2022/11/06 05:54:07;;;;;;;40.00;22.95;;;;;;;5.92;100.00;100484.86;1734067;82;21083;-72
2022/11/06 05:56:34;;;;;;;38.60;23.40;;;;;;;5.95;100.00;100483.89;1730551;80;21536;-72
2022/11/06 05:59:03;;;;;;;40.75;22.30;;;;;;;5.92;100.00;100486.20;1740435;82;21057;-72
2022/11/06 06:01:30;;;;;;;40.35;22.50;;;;;;;5.94;100.00;100493.06;1733433;82;21025;-72
2022/11/06 06:03:57;;;;;;;34.92;21.48;;;;;;;6.03;100.00;100500.86;1725889;82;21114;-72
2022/11/06 06:06:24;;;;;;;39.20;23.10;;;;;;;6.06;100.00;100487.73;1718074;83;21524;-72
2022/11/06 06:08:50;;;;;;;37.10;21.10;;;;;;;6.02;100.00;100489.25;1725458;83;21098;-71
2022/11/06 06:11:19;;;;;;;36.80;20.65;;;;;;;6.01;100.00;100495.70;1726042;82;21553;-72
2022/11/06 06:13:46;;;;;;;;;;;;;;;6.05;100.00;100498.78;1727969;81;21062;-72
2022/11/06 06:16:13;;;;;;;36.50;21.35;;;;;;;6.08;100.00;100498.33;1733292;81;20144;-72
2022/11/06 06:18:39;;;;;;;35.95;21.25;;;;;;;5.97;100.00;100504.78;1725437;82;21152;-71
2022/11/06 06:21:07;;;;;;;35.98;21.48;;;;;;;5.92;100.00;100500.55;1706102;83;21625;-72
2022/11/06 06:23:34;;;;;;;;;;;;;;;5.93;100.00;100502.21;1723679;83;21491;-72
2022/11/06 06:26:00;;;;;;;35.58;19.75;;;;;;;6.00;100.00;100507.03;1739922;81;20137;-71
2022/11/06 06:28:27;;;;;;;35.25;20.32;;;;;;;6.04;100.00;100507.41;1732583;82;21066;-72
2022/11/06 06:30:54;;;;;;;36.60;21.70;;;;;;;6.08;100.00;100510.48;1729681;82;21102;-71
2022/11/06 10:08:27;;;;;;;62.53;29.48;;;;;;;5.30;100.00;100566.28;1784274;78;23040;-67
2022/11/06 10:11:17;;;;;;;54.40;28.38;;;;;;;5.35;100.00;100564.28;1744915;81;21098;-69
2022/11/06 10:14:24;;;;;;;42.53;22.87;;;;;;;5.59;100.00;100566.19;1725832;82;21120;-69
2022/11/06 10:17:09;;;;;;;35.52;20.12;;;;;;;5.78;100.00;100564.36;1725419;82;21105;-69
2022/11/06 10:19:43;;;;;;;30.72;18.60;;;;;;;5.94;100.00;100562.50;1740168;81;21157;-69
2022/11/06 10:22:16;;;;;;;28.02;17.32;;;;;;;6.07;100.00;100561.02;1741907;81;21137;-69
2022/11/06 10:24:46;;;;;;;27.62;18.00;;;;;;;6.16;100.00;100557.52;1734268;82;21105;-70
2022/11/06 10:27:20;;;;;;;26.85;17.00;;;;;;;6.22;100.00;100553.91;1744003;81;21077;-69
2022/11/06 10:29:56;;;;;;;28.47;17.32;;;;;;;6.31;100.00;100556.61;1722182;82;21113;-69
2022/11/06 10:32:49;;;;;;;24.12;16.20;;;;;;;6.34;100.00;100556.19;1741917;80;21086;-69
2022/11/06 10:35:37;;;;;;;26.55;16.37;;;;;;;6.39;100.00;100556.33;1747067;81;21089;-69
2022/11/06 10:38:11;;;;;;;26.12;16.73;;;;;;;6.44;100.00;100551.08;1746541;81;21043;-69
2022/11/06 10:40:39;;;;;;;26.30;17.12;;;;;;;6.48;100.00;100549.03;1739008;81;21473;-69
2022/11/06 10:43:34;;;;;;;27.75;16.48;;;;;;;6.52;100.00;100551.31;1720144;82;21549;-69
2022/11/06 10:46:40;;;;;;;25.40;16.27;;;;;;;6.48;100.00;100547.68;1691516;83;21056;-69
2022/11/06 10:49:50;;;;;;;22.48;14.60;;;;;;;6.46;100.00;100544.39;1649316;87;21106;-69
2022/11/06 10:52:40;;;;;;;22.58;15.18;;;;;;;6.48;100.00;100538.22;1671943;84;21665;-69
2022/11/06 10:55:30;;;;;;;22.52;14.55;;;;;;;6.50;100.00;100538.00;1672837;84;22215;-69
2022/11/06 10:58:01;;;;;;;24.92;15.65;;;;;;;6.50;100.00;100538.00;1688212;84;21616;-68
2022/11/06 11:00:28;;;;;;;25.45;16.90;;;;;;;6.44;100.00;100534.33;1695010;84;21533;-69
2022/11/06 11:02:58;;;;;;;23.95;15.85;;;;;;;6.43;100.00;100541.30;1685036;84;21058;-69
2022/11/06 11:05:25;;;;;;;24.02;15.70;;;;;;;6.49;100.00;100536.34;1741992;81;21133;-69
2022/11/06 11:07:53;;;;;;;25.10;16.07;;;;;;;6.53;100.00;100535.36;1740923;81;21051;-70
2022/11/06 11:10:29;;;;;;;28.00;17.77;;;;;;;6.52;100.00;100525.06;1695704;84;21110;-69
2022/11/06 11:12:59;;;;;;;27.75;17.92;;;;;;;6.46;100.00;100523.27;1686918;84;21102;-70
2022/11/06 11:15:27;;;;;;;26.60;16.30;;;;;;;6.45;100.00;100527.84;1686130;83;21070;-70
2022/11/06 11:18:15;;;;;;;22.58;14.90;;;;;;;6.52;100.00;100516.95;1694237;84;21090;-69
2022/11/06 11:20:50;;;;;;;22.27;15.18;;;;;;;6.53;100.00;100519.97;1660976;84;21440;-69
2022/11/06 11:23:24;;;;;;;26.27;16.50;;;;;;;6.48;100.00;100517.92;1697085;84;21093;-69
2022/11/06 11:25:55;;;;;;;21.12;14.07;;;;;;;6.51;100.00;100516.67;1724948;81;21529;-68
2022/11/06 11:28:31;;;;;;;23.60;15.85;;;;;;;6.51;100.00;100516.67;1726197;82;21598;-69
2022/11/06 11:31:14;;;;;;;23.55;14.95;;;;;;;6.47;100.00;100508.70;1695190;82;21062;-70
2022/11/06 11:33:50;;;;;;;23.70;14.07;;;;;;;6.41;100.00;100513.67;1736457;80;21137;-69
2022/11/06 11:36:16;;;;;;;22.37;14.85;;;;;;;6.43;100.00;100504.27;1695705;82;21082;-70
2022/11/06 11:38:43;;;;;;;20.60;14.00;;;;;;;6.44;100.00;100504.58;1652187;86;21676;-70
2022/11/06 11:41:22;;;;;;;;;;;;;;;6.43;100.00;100507.50;1705409;82;21046;-70
2022/11/06 11:44:15;;;;;;;23.40;15.32;;;;;;;6.37;100.00;100503.83;1732500;81;20161;-69
2022/11/06 11:46:52;;;;;;;22.30;14.43;;;;;;;6.26;100.00;100499.69;1723756;82;21079;-70
2022/11/06 11:49:31;;;;;;;20.60;13.93;;;;;;;6.32;100.00;100505.02;1746028;81;21054;-70
2022/11/06 11:52:01;;;;;;;21.33;14.15;;;;;;;6.37;100.00;100509.77;1733089;82;21062;-69
2022/11/06 11:54:32;;;;;;;20.68;13.45;;;;;;;6.36;100.00;100506.75;1715276;81;21031;-70
2022/11/06 11:57:05;;;;;;;19.57;13.50;;;;;;;6.37;100.00;100507.06;1673449;85;21090;-70
2022/11/06 11:59:46;;;;;;;19.77;13.72;;;;;;;6.42;100.00;100503.96;1744025;81;21577;-70
2022/11/06 12:02:20;;;;;;;21.07;14.50;;;;;;;6.43;100.00;100501.56;1713569;82;21127;-70
2022/11/06 12:04:51;;;;;;;20.62;13.70;;;;;;;6.34;100.00;100502.91;1662959;85;21443;-69
2022/11/06 12:07:25;;;;;;;21.33;14.50;;;;;;;6.31;100.00;100502.01;1667966;85;21076;-70
2022/11/06 12:09:51;;;;;;;23.60;14.68;;;;;;;6.37;100.00;100504.35;1718820;82;21583;-70
2022/11/06 12:12:30;;;;;;;23.65;14.87;;;;;;;6.37;100.00;100504.35;1688182;84;21068;-69
2022/11/06 12:15:27;;;;;;;21.05;13.98;;;;;;;6.33;100.00;100502.63;1726359;82;21114;-70
2022/11/06 12:18:00;;;;;;;22.70;14.70;;;;;;;6.34;100.00;100502.91;1742141;82;21109;-70
2022/11/06 12:21:01;;;;;;;19.30;13.55;;;;;;;6.35;100.00;100500.52;1715566;82;21482;-71
2022/11/06 12:24:08;;;;;;;21.80;14.40;;;;;;;6.35;100.00;100500.52;1729705;82;21059;-71
2022/11/06 12:27:03;;;;;;;22.75;15.30;;;;;;;6.31;100.00;100498.47;1734938;82;21070;-70
2022/11/06 12:29:37;;;;;;;21.27;14.58;;;;;;;6.23;100.00;100496.92;1707591;82;21071;-70
2022/11/06 12:32:29;;;;;;;21.75;15.03;;;;;;;6.21;100.00;100494.13;1665294;85;21089;-71
2022/11/06 12:35:12;;;;;;;22.37;14.95;;;;;;;6.19;100.00;100487.61;1728998;82;21682;-71
2022/11/06 12:37:56;;;;;;;22.42;15.88;;;;;;;6.19;100.00;100496.23;1721325;82;21428;-72
2022/11/06 12:40:39;;;;;;;22.13;16.07;;;;;;;6.19;100.00;100492.19;1716261;82;21640;-71
2022/11/06 12:43:26;;;;;;;23.22;16.12;;;;;;;6.14;100.00;100492.84;1732966;82;21085;-70
2022/11/06 12:46:16;;;;;;;22.45;15.68;;;;;;;6.14;100.00;100491.49;1697527;84;21013;-69
2022/11/06 12:49:21;;;;;;;20.30;14.38;;;;;;;6.17;100.00;100492.39;1722957;82;21130;-69
2022/11/06 12:52:09;;;;;;;21.37;15.40;;;;;;;6.21;100.00;100489.55;1731134;82;21051;-70
2022/11/06 12:54:54;;;;;;;23.22;16.60;;;;;;;6.16;100.00;100493.47;1711769;82;21185;-69
2022/11/06 12:57:47;;;;;;;23.10;16.52;;;;;;;6.08;100.00;100496.98;1714768;82;21058;-68
2022/11/06 13:00:21;;;;;;;22.13;14.63;;;;;;;6.06;100.00;100491.78;1724183;82;21078;-69
2022/11/06 13:03:27;;;;;;;21.12;15.35;;;;;;;6.08;100.00;100497.80;1732836;82;21060;-70
2022/11/06 13:06:24;;;;;;;21.52;15.70;;;;;;;6.10;100.00;100501.10;1717748;82;21042;-70
2022/11/06 13:09:11;;;;;;;20.27;15.60;;;;;;;6.06;100.00;100493.12;1731911;82;21087;-70
2022/11/06 13:12:01;;;;;;;21.95;16.23;;;;;;;5.95;100.00;100497.40;1728983;82;21040;-69
2022/11/06 13:14:52;;;;;;;21.15;14.98;;;;;;;5.94;100.00;100497.13;1712955;82;21624;-70
2022/11/06 13:17:33;;;;;;;18.35;14.05;;;;;;;5.97;100.00;100493.13;1733851;81;21576;-70
2022/11/06 13:20:28;;;;;;;21.77;16.25;;;;;;;6.00;100.00;100493.52;1712733;82;22232;-70
2022/11/06 13:23:20;;;;;;;24.63;16.17;;;;;;;6.03;100.00;100499.51;1721869;82;21095;-68
2022/11/06 13:26:06;;;;;;;22.10;14.87;;;;;;;6.03;100.00;100500.86;1739421;82;21378;-69
2022/11/06 13:28:54;;;;;;;23.55;17.00;;;;;;;5.98;100.00;100497.50;1710511;82;21091;-69
2022/11/06 13:31:20;;;;;;;25.27;17.65;;;;;;;5.92;100.00;100507.83;1720992;82;21070;-69
2022/11/06 13:36:27;;;;;;;23.87;16.75;;;;;;;5.82;100.00;100493.45;1814739;78;23779;-70
2022/11/06 13:39:01;;;;;;;26.60;17.10;;;;;;;5.80;100.00;100509.07;1779921;79;21102;-70
2022/11/06 13:41:29;;;;;;;24.18;15.88;;;;;;;5.80;100.00;100510.94;1772831;80;21015;-70
2022/11/06 13:44:03;;;;;;;26.17;17.52;;;;;;;5.80;100.00;100494.21;1744003;80;21133;-70
2022/11/06 13:47:07;;;;;;;23.12;16.70;;;;;;;5.80;100.00;100501.48;1729209;81;21066;-70
2022/11/06 13:49:54;;;;;;;23.55;17.02;;;;;;;5.79;100.00;100497.95;1693621;82;21059;-70
2022/11/06 13:52:27;;;;;;;;;;;;;;;5.70;100.00;100497.12;1729376;81;20998;-70
2022/11/06 13:55:08;;;;;;;22.90;15.98;;;;;;;5.68;100.00;100497.84;1692398;83;20185;-70
2022/11/06 13:58:04;;;;;;;24.02;15.90;;;;;;;5.67;100.00;100498.91;1725268;81;21019;-71
2022/11/06 14:00:49;;;;;;;26.55;17.52;;;;;;;5.69;100.00;100500.34;1729390;81;21051;-70
2022/11/06 14:03:50;;;;;;;23.55;16.57;;;;;;;5.65;100.00;100492.37;1720051;81;22287;-71
2022/11/06 14:06:32;;;;;;;23.45;16.05;;;;;;;5.63;100.00;100489.59;1721118;81;21080;-70
2022/11/06 14:09:05;;;;;;;22.77;15.30;;;;;;;5.66;100.00;100496.73;1725380;81;21094;-70
2022/11/06 14:11:36;;;;;;;23.40;16.17;;;;;;;5.63;100.00;100492.30;1722516;81;21691;-70
2022/11/06 14:14:23;;;;;;;21.80;15.85;;;;;;;5.59;100.00;100482.45;1683203;83;21031;-71
2022/11/06 14:17:19;;;;;;;23.30;15.55;;;;;;;5.62;100.00;100485.23;1726899;81;21046;-70
2022/11/06 14:19:55;;;;;;;22.40;15.72;;;;;;;5.62;100.00;100485.23;1713121;82;21095;-71
2022/11/06 14:22:35;;;;;;;20.55;15.78;;;;;;;5.50;100.00;100490.52;1700446;83;21447;-69
2022/11/06 14:25:31;;;;;;;22.35;15.53;;;;;;;5.45;100.00;100487.15;1712981;81;21082;-70
2022/11/06 14:28:02;;;;;;;21.77;15.85;;;;;;;5.48;100.00;100481.30;1656139;84;21489;-72
2022/11/06 14:30:36;;;;;;;23.50;15.60;;;;;;;5.47;100.00;100481.52;1693887;83;21050;-70
2022/11/06 14:33:11;;;;;;;25.48;17.32;;;;;;;5.40;100.00;100479.39;1720271;82;21054;-69
2022/11/06 14:35:47;;;;;;;24.47;16.05;;;;;;;5.38;100.00;100471.52;1708145;82;21447;-70
2022/11/06 14:38:32;;;;;;;24.30;16.50;;;;;;;5.43;100.00;100477.59;1662672;83;21110;-71
2022/11/06 14:40:59;;;;;;;21.97;16.40;;;;;;;5.44;100.00;100473.34;1698224;83;21134;-70
2022/11/06 14:43:31;;;;;;;25.48;17.85;;;;;;;5.35;100.00;100470.59;1744272;80;21196;-70
2022/11/06 14:46:16;;;;;;;23.57;15.90;;;;;;;5.32;100.00;100468.85;1728112;80;21110;-70
2022/11/06 14:48:46;;;;;;;24.72;16.93;;;;;;;5.35;100.00;100459.79;1719728;80;21084;-69
2022/11/06 14:51:12;;;;;;;23.90;17.67;;;;;;;5.33;100.00;100447.05;1701158;82;21085;-69
2022/11/06 14:53:48;;;;;;;23.80;16.67;;;;;;;5.26;100.00;100443.58;1746403;80;21083;-70
2022/11/06 14:56:28;;;;;;;24.35;17.10;;;;;;;5.27;100.00;100445.75;1723330;80;21577;-69
2022/11/06 14:58:56;;;;;;;24.82;17.23;;;;;;;5.37;100.00;100452.83;1703488;82;21665;-70
2022/11/06 15:01:32;;;;;;;25.45;18.98;;;;;;;5.32;100.00;100445.38;1770355;80;21043;-70
2022/11/06 15:04:04;;;;;;;27.40;18.02;;;;;;;5.23;100.00;100444.54;1756443;80;21092;-70
2022/11/06 15:06:42;;;;;;;23.95;17.27;;;;;;;5.21;100.00;100438.55;1761294;80;21568;-70
2022/11/06 15:09:25;;;;;;;27.65;19.57;;;;;;;5.22;100.00;100444.22;1747706;80;21091;-70
2022/11/06 15:11:56;;;;;;;29.45;20.43;;;;;;;5.19;100.00;100452.77;1759355;80;21062;-70
2022/11/06 15:14:31;;;;;;;33.55;23.00;;;;;;;5.09;100.00;100447.86;1736450;80;21051;-70
2022/11/06 15:17:06;;;;;;;28.02;19.40;;;;;;;5.11;100.00;100438.18;1702579;82;21586;-69
2022/11/06 15:19:40;;;;;;;28.83;18.92;;;;;;;5.14;100.00;100439.92;1730592;80;21052;-70
2022/11/06 15:22:34;;;;;;;30.00;22.10;;;;;;;5.16;100.00;100444.59;1764307;80;21736;-70
2022/11/06 15:25:09;;;;;;;29.95;21.17;;;;;;;5.13;100.00;100447.73;1750865;80;21079;-70
2022/11/06 15:28:06;;;;;;;26.45;18.80;;;;;;;5.15;100.00;100444.28;1746666;80;21074;-69
2022/11/06 15:30:57;;;;;;;28.55;20.05;;;;;;;5.17;100.00;100440.86;1723730;80;21070;-70
2022/11/06 15:33:29;;;;;;;29.20;20.77;;;;;;;5.17;100.00;100444.91;1720219;81;21625;-70
2022/11/06 15:35:57;;;;;;;31.60;22.25;;;;;;;5.11;100.00;100448.45;1739388;80;21043;-70
2022/11/06 15:38:28;;;;;;;32.40;22.50;;;;;;;5.09;100.00;100447.03;1711750;82;21126;-70
2022/11/06 15:40:54;;;;;;;29.95;21.10;;;;;;;5.10;100.00;100448.14;1743677;80;21103;-70
2022/11/06 15:43:30;;;;;;;33.92;23.27;;;;;;;5.15;100.00;100452.89;1753421;80;21062;-70
2022/11/06 15:46:18;;;;;;;33.30;23.47;;;;;;;5.17;100.00;100448.95;1749325;80;21083;-70